createdAt,value
2023-01-15T00:02:57.294Z,10.00
2023-01-15T00:06:19.059Z,9.90
2023-01-15T00:09:40.629Z,9.90
2023-01-15T00:13:04.015Z,9.80
2023-01-15T00:16:26.551Z,9.80
2023-01-15T00:19:48.457Z,9.80
2023-01-15T00:23:10.463Z,9.80
2023-01-15T00:26:34.739Z,9.80
2023-01-15T00:29:59.151Z,9.80
2023-01-15T00:33:20.760Z,9.80
2023-01-15T00:36:42.369Z,9.90
2023-01-15T00:40:04.303Z,9.90
2023-01-15T00:43:25.888Z,9.90
2023-01-15T00:46:49.002Z,9.90
2023-01-15T00:50:11.901Z,10.00
2023-01-15T00:53:33.585Z,10.10
2023-01-15T00:56:55.241Z,10.10
2023-01-15T01:00:17.340Z,10.20
2023-01-15T01:03:41.550Z,10.30
2023-01-15T01:07:03.451Z,10.40
2023-01-15T01:10:25.155Z,10.40
2023-01-15T01:13:47.217Z,10.40
2023-01-15T01:17:08.886Z,10.30
2023-01-15T01:20:32.096Z,10.30
2023-01-15T01:23:53.787Z,10.30
2023-01-15T01:27:15.398Z,10.30
2023-01-15T01:30:37.958Z,10.30
2023-01-15T01:33:59.612Z,10.30
2023-01-15T01:37:22.635Z,10.30
2023-01-15T01:40:44.242Z,10.30
2023-01-15T01:44:06.444Z,10.30
2023-01-15T01:47:29.425Z,10.30
2023-01-15T01:50:51.191Z,10.30
2023-01-15T01:54:16.539Z,10.40
2023-01-15T01:57:38.936Z,10.50
2023-01-15T02:01:01.323Z,10.50
2023-01-15T02:04:24.971Z,10.50
2023-01-15T02:07:46.559Z,10.50
2023-01-15T02:11:12.586Z,10.60
2023-01-15T02:14:38.106Z,10.60
2023-01-15T02:18:02.191Z,10.60
2023-01-15T02:21:30.924Z,10.70
2023-01-15T02:24:57.921Z,10.70
2023-01-15T02:28:23.843Z,10.70
2023-01-15T02:31:48.761Z,10.70
2023-01-15T02:35:12.916Z,10.70
2023-01-15T02:38:37.572Z,10.70
2023-01-15T02:42:00.894Z,10.70
2023-01-15T02:45:25.870Z,10.80
2023-01-15T02:48:50.000Z,10.70
2023-01-15T02:52:14.615Z,10.80
2023-01-15T02:55:38.398Z,10.70
2023-01-15T02:59:03.141Z,10.80
2023-01-15T03:02:28.837Z,10.80
2023-01-15T03:05:54.143Z,10.80
2023-01-15T03:09:16.068Z,10.80
2023-01-15T03:12:41.260Z,10.80
2023-01-15T03:16:03.920Z,10.80
2023-01-15T03:19:29.121Z,10.70
2023-01-15T03:22:53.796Z,10.70
2023-01-15T03:26:15.380Z,10.70
2023-01-15T03:29:38.720Z,10.70
2023-01-15T03:33:00.392Z,10.70
2023-01-15T03:36:23.435Z,10.60
2023-01-15T03:39:45.180Z,10.60
2023-01-15T03:43:08.870Z,10.50
2023-01-15T03:46:36.961Z,10.50
2023-01-15T03:50:02.337Z,10.50
2023-01-15T03:53:28.004Z,10.40
2023-01-15T03:56:52.518Z,10.40
2023-01-15T04:00:15.689Z,10.40
2023-01-15T04:03:37.783Z,10.50
2023-01-15T04:06:59.685Z,10.40
2023-01-15T04:10:22.711Z,10.40
2023-01-15T04:13:44.325Z,10.40
2023-01-15T04:17:05.956Z,10.50
2023-01-15T04:20:27.523Z,10.50
2023-01-15T04:23:49.092Z,10.50
2023-01-15T04:27:12.042Z,10.50
2023-01-15T04:30:34.014Z,10.50
2023-01-15T04:33:55.635Z,10.50
2023-01-15T04:37:17.687Z,10.40
2023-01-15T04:40:39.281Z,10.40
2023-01-15T04:44:02.257Z,10.30
2023-01-15T04:47:24.064Z,10.40
2023-01-15T04:50:45.675Z,10.40
2023-01-15T04:54:07.568Z,10.40
2023-01-15T04:57:29.162Z,10.40
2023-01-15T05:00:52.109Z,10.40
2023-01-15T05:04:13.982Z,10.40
2023-01-15T05:07:35.799Z,10.40
2023-01-15T05:11:00.877Z,10.40
2023-01-15T05:14:22.484Z,10.40
2023-01-15T05:17:45.443Z,10.40
2023-01-15T05:21:07.026Z,10.50
2023-01-15T05:24:28.623Z,10.50
2023-01-15T05:27:50.205Z,10.50
2023-01-15T05:31:12.591Z,10.40
2023-01-15T05:34:35.553Z,10.50
2023-01-15T05:37:57.169Z,10.50
2023-01-15T05:41:20.104Z,10.50
2023-01-15T05:44:41.674Z,10.50
2023-01-15T05:48:03.486Z,10.50
2023-01-15T05:51:26.477Z,10.50
2023-01-15T05:54:49.021Z,10.50
2023-01-15T05:58:10.592Z,10.30
2023-01-15T06:01:32.345Z,9.50
2023-01-15T06:04:54.031Z,8.80
2023-01-15T06:08:17.007Z,8.30
2023-01-15T06:11:38.773Z,8.00
2023-01-15T06:15:00.368Z,7.90
2023-01-15T06:18:22.777Z,7.80
2023-01-15T06:21:44.636Z,7.60
2023-01-15T06:25:07.815Z,7.60
2023-01-15T06:28:29.433Z,7.50
2023-01-15T06:31:51.114Z,7.50
2023-01-15T06:35:13.006Z,7.40
2023-01-15T06:38:34.810Z,7.40
2023-01-15T06:41:57.834Z,7.30
2023-01-15T06:45:19.423Z,7.30
2023-01-15T06:48:40.994Z,7.20
2023-01-15T06:52:03.180Z,7.20
2023-01-15T06:55:24.783Z,7.10
2023-01-15T06:58:47.735Z,7.10
2023-01-15T07:02:09.903Z,7.00
2023-01-15T07:05:31.507Z,7.00
2023-01-15T07:08:53.119Z,7.00
2023-01-15T07:12:14.776Z,6.90
2023-01-15T07:15:39.135Z,6.80
2023-01-15T07:19:00.729Z,6.80
2023-01-15T07:22:22.310Z,6.70
2023-01-15T07:25:43.935Z,6.70
2023-01-15T07:29:05.648Z,6.60
2023-01-15T07:32:28.582Z,6.50
2023-01-15T07:35:50.182Z,6.40
2023-01-15T07:39:12.149Z,6.40
2023-01-15T07:42:33.738Z,6.30
2023-01-15T07:45:55.407Z,6.20
2023-01-15T07:49:18.377Z,6.10
2023-01-15T07:52:40.323Z,6.00
2023-01-15T07:56:02.095Z,5.90
2023-01-15T07:59:23.682Z,5.90
2023-01-15T08:02:45.291Z,5.90
2023-01-15T08:06:08.403Z,5.80
2023-01-15T08:09:30.185Z,5.80
2023-01-15T08:12:51.844Z,5.80
2023-01-15T08:16:13.530Z,5.80
2023-01-15T08:19:35.142Z,5.80
2023-01-15T08:23:00.539Z,5.90
2023-01-15T08:26:22.181Z,5.90
2023-01-15T08:29:43.787Z,5.90
2023-01-15T08:33:05.378Z,5.90
2023-01-15T08:36:26.972Z,5.90
2023-01-15T08:39:49.909Z,5.90
2023-01-15T08:43:11.551Z,5.90
2023-01-15T08:46:33.261Z,5.90
2023-01-15T08:49:54.874Z,5.90
2023-01-15T08:53:16.555Z,5.90
2023-01-15T08:56:39.521Z,5.90
2023-01-15T09:00:01.135Z,5.90
2023-01-15T09:03:22.738Z,6.00
2023-01-15T09:06:46.875Z,6.00
2023-01-15T09:10:08.985Z,6.00
2023-01-15T09:13:32.339Z,6.10
2023-01-15T09:16:54.102Z,6.10
2023-01-15T09:20:15.930Z,6.10
2023-01-15T09:23:37.530Z,6.20
2023-01-15T09:27:00.622Z,6.10
2023-01-15T09:30:23.673Z,6.20
2023-01-15T09:33:45.283Z,6.10
2023-01-15T09:37:11.036Z,6.10
2023-01-15T09:40:40.057Z,6.10
2023-01-15T09:44:08.573Z,6.10
2023-01-15T09:47:34.765Z,6.10
2023-01-15T09:51:02.126Z,6.10
2023-01-15T09:54:30.491Z,6.20
2023-01-15T09:57:54.081Z,6.20
2023-01-15T10:01:16.739Z,6.30
2023-01-15T10:04:42.501Z,6.30
2023-01-15T10:08:07.329Z,6.40
2023-01-15T10:11:33.131Z,6.40
2023-01-15T10:14:59.070Z,6.40
2023-01-15T10:18:22.719Z,6.30
2023-01-15T10:21:49.970Z,6.20
2023-01-15T10:25:15.076Z,6.20
2023-01-15T10:28:47.418Z,6.10
2023-01-15T10:32:16.568Z,6.00
2023-01-15T10:35:41.823Z,6.00
2023-01-15T10:39:10.498Z,6.10
2023-01-15T10:42:38.512Z,6.10
2023-01-15T10:46:00.680Z,6.10
2023-01-15T10:49:22.407Z,6.10
2023-01-15T10:52:45.628Z,6.10
2023-01-15T10:56:13.156Z,6.00
2023-01-15T10:59:39.613Z,6.00
2023-01-15T11:03:02.695Z,5.90
2023-01-15T11:06:24.438Z,5.80
2023-01-15T11:09:46.360Z,5.70
2023-01-15T11:13:17.385Z,5.80
2023-01-15T11:16:41.012Z,5.70
2023-01-15T11:20:04.261Z,5.70
2023-01-15T11:23:26.009Z,5.70
2023-01-15T11:26:48.721Z,5.60
2023-01-15T11:30:25.595Z,5.40
2023-01-15T11:33:58.248Z,5.10
2023-01-15T11:37:19.935Z,4.80
2023-01-15T11:40:53.354Z,4.60
2023-01-15T11:44:16.585Z,4.50
2023-01-15T11:47:38.287Z,4.50
2023-01-15T11:51:03.611Z,4.40
2023-01-15T11:54:25.810Z,4.40
2023-01-15T11:57:48.125Z,4.40
2023-01-15T12:01:12.177Z,4.40
2023-01-15T12:04:36.135Z,4.50
2023-01-15T12:08:01.861Z,4.50
2023-01-15T12:11:30.065Z,4.50
2023-01-15T12:15:15.751Z,4.50
2023-01-15T12:18:48.889Z,4.50
2023-01-15T12:22:16.931Z,4.50
2023-01-15T12:25:44.864Z,4.50
2023-01-15T12:29:09.240Z,4.50
2023-01-15T12:32:33.290Z,4.50
2023-01-15T12:35:57.380Z,4.50
2023-01-15T12:39:21.622Z,4.60
2023-01-15T12:42:46.277Z,4.60
2023-01-15T12:46:10.817Z,4.50
2023-01-15T12:49:35.385Z,4.50
2023-01-15T12:52:59.461Z,4.50
2023-01-15T12:56:23.504Z,4.60
2023-01-15T12:59:47.746Z,4.60
2023-01-15T13:03:15.485Z,4.60
2023-01-15T13:06:41.291Z,4.70
2023-01-15T13:10:08.548Z,4.70
2023-01-15T13:13:32.339Z,4.70
2023-01-15T13:16:57.176Z,4.70
2023-01-15T13:20:25.526Z,4.70
2023-01-15T13:24:01.438Z,4.70
2023-01-15T13:27:27.385Z,4.80
2023-01-15T13:30:55.583Z,4.70
2023-01-15T13:34:21.427Z,4.80
2023-01-15T13:37:45.017Z,4.80
2023-01-15T13:41:07.452Z,4.80
2023-01-15T13:44:31.225Z,4.80
2023-01-15T13:47:54.379Z,4.80
2023-01-15T13:51:25.819Z,4.90
2023-01-15T13:54:47.396Z,4.90
2023-01-15T13:58:16.972Z,4.80
2023-01-15T14:01:39.156Z,4.90
2023-01-15T14:05:11.599Z,4.90
2023-01-15T14:08:41.598Z,4.80
2023-01-15T14:12:08.336Z,4.80
2023-01-15T14:15:38.028Z,4.90
2023-01-15T14:19:15.115Z,4.90
2023-01-15T14:22:51.510Z,5.00
2023-01-15T14:26:19.432Z,5.00
2023-01-15T14:29:53.611Z,5.00
2023-01-15T14:33:20.520Z,5.00
2023-01-15T14:36:46.678Z,4.90
2023-01-15T14:40:17.645Z,5.00
2023-01-15T14:43:47.823Z,4.90
2023-01-15T14:47:15.343Z,4.90
2023-01-15T14:50:37.793Z,4.90
2023-01-15T14:54:01.602Z,4.90
2023-01-15T14:57:23.518Z,4.80
2023-01-15T15:00:49.920Z,4.80
2023-01-15T15:04:19.681Z,4.80
2023-01-15T15:07:43.408Z,4.80
2023-01-15T15:11:06.337Z,4.70
2023-01-15T15:14:28.201Z,4.70
2023-01-15T15:17:57.925Z,4.70
2023-01-15T15:21:20.798Z,4.60
2023-01-15T15:24:45.529Z,4.60
2023-01-15T15:28:09.569Z,4.60
2023-01-15T15:31:32.162Z,4.50
2023-01-15T15:34:55.335Z,4.50
2023-01-15T15:38:18.267Z,4.50
2023-01-15T15:41:43.166Z,4.40
2023-01-15T15:45:13.614Z,4.40
2023-01-15T15:48:39.335Z,4.40
2023-01-15T15:52:13.674Z,4.30
2023-01-15T15:55:37.764Z,4.30
2023-01-15T15:58:59.778Z,4.20
2023-01-15T16:02:22.907Z,4.20
2023-01-15T16:05:54.120Z,4.10
2023-01-15T16:09:21.761Z,4.10
2023-01-15T16:12:44.424Z,4.10
2023-01-15T16:16:07.346Z,4.00
2023-01-15T16:19:29.732Z,4.00
2023-01-15T16:22:53.775Z,4.00
2023-01-15T16:26:21.937Z,3.90
2023-01-15T16:29:48.371Z,3.90
2023-01-15T16:33:17.235Z,3.90
2023-01-15T16:36:41.201Z,3.90
2023-01-15T16:40:04.926Z,3.90
2023-01-15T16:43:28.189Z,3.90
2023-01-15T16:46:52.853Z,3.80
2023-01-15T16:50:26.152Z,3.80
2023-01-15T16:53:47.738Z,3.80
2023-01-15T16:57:33.347Z,3.80
2023-01-15T17:00:56.740Z,3.70
2023-01-15T17:04:20.675Z,3.70
2023-01-15T17:07:42.282Z,3.60
2023-01-15T17:11:07.940Z,3.50
2023-01-15T17:14:29.892Z,3.50
2023-01-15T17:17:53.785Z,3.50
2023-01-15T17:25:22.286Z,3.50
2023-01-15T17:28:43.875Z,3.50
2023-01-15T17:32:05.800Z,3.50
2023-01-15T17:35:29.935Z,3.50
2023-01-15T17:38:51.862Z,3.50
2023-01-15T17:46:11.959Z,3.40
2023-01-15T17:49:33.764Z,3.50
2023-01-15T17:52:56.702Z,3.40
2023-01-15T17:59:47.306Z,3.40
2023-01-15T18:03:13.957Z,3.40
2023-01-15T18:10:14.596Z,3.40
2023-01-15T18:13:36.489Z,3.40
2023-01-15T18:20:56.817Z,3.40
2023-01-15T18:24:18.645Z,3.40
2023-01-15T18:27:41.553Z,3.40
2023-01-15T18:31:03.365Z,3.40
2023-01-15T18:34:24.973Z,3.40
2023-01-15T18:37:46.598Z,3.50
2023-01-15T18:41:08.498Z,3.40
2023-01-15T18:44:31.426Z,3.50
2023-01-15T18:47:52.979Z,3.50
2023-01-15T18:51:14.503Z,3.50
2023-01-15T18:54:36.382Z,3.50
2023-01-15T18:57:57.951Z,3.50
2023-01-15T19:01:20.900Z,3.50
2023-01-15T19:04:42.490Z,3.40
2023-01-15T19:08:04.071Z,3.50
2023-01-15T19:11:25.649Z,3.50
2023-01-15T19:14:47.238Z,3.50
2023-01-15T19:18:11.158Z,3.50
2023-01-15T19:21:32.757Z,3.50
2023-01-15T19:24:54.320Z,3.50
2023-01-15T19:28:16.716Z,3.40
2023-01-15T19:31:38.379Z,3.40
2023-01-15T19:35:01.330Z,3.40
2023-01-15T19:38:22.968Z,3.30
2023-01-15T19:41:44.532Z,3.30
2023-01-15T19:45:06.599Z,3.20
2023-01-15T19:48:28.320Z,3.20
2023-01-15T19:51:51.263Z,3.20
2023-01-15T19:55:13.241Z,3.20
2023-01-15T19:58:35.205Z,3.20
2023-01-15T20:01:56.829Z,3.20
2023-01-15T20:05:18.899Z,3.20
2023-01-15T20:08:41.844Z,3.10
2023-01-15T20:12:03.634Z,3.10
2023-01-15T20:15:25.654Z,3.10
2023-01-15T20:18:48.264Z,3.10
2023-01-15T20:22:09.825Z,3.00
2023-01-15T20:25:32.770Z,3.00
2023-01-15T20:28:54.299Z,2.90
2023-01-15T20:32:15.876Z,2.90
2023-01-15T20:35:38.054Z,3.00
2023-01-15T20:39:02.538Z,3.00
2023-01-15T20:42:26.676Z,3.00
2023-01-15T20:45:50.178Z,3.00
2023-01-15T20:49:12.533Z,3.00
2023-01-15T20:52:34.759Z,2.90
2023-01-15T20:55:57.791Z,2.90
2023-01-15T20:59:20.915Z,2.90
2023-01-15T21:02:42.481Z,2.90
2023-01-15T21:06:05.013Z,2.90
2023-01-15T21:09:27.350Z,2.90
2023-01-15T21:12:49.015Z,2.90
2023-01-15T21:16:12.333Z,2.90
2023-01-15T21:19:34.616Z,2.90
2023-01-15T21:22:56.604Z,2.90
2023-01-15T21:26:20.866Z,2.90
2023-01-15T21:29:42.651Z,2.90
2023-01-15T21:33:08.687Z,2.90
2023-01-15T21:36:30.475Z,2.90
2023-01-15T21:39:52.175Z,2.90
2023-01-15T21:43:13.737Z,2.90
2023-01-15T21:46:35.487Z,3.00
2023-01-15T21:49:58.405Z,2.90
2023-01-15T21:53:19.959Z,2.90
2023-01-15T21:56:42.567Z,2.90
2023-01-15T22:00:04.671Z,2.90
2023-01-15T22:03:26.251Z,2.80
2023-01-15T22:06:49.226Z,2.80
2023-01-15T22:10:11.078Z,2.80
2023-01-15T22:13:32.850Z,2.80
2023-01-15T22:16:55.018Z,2.80
2023-01-15T22:20:17.015Z,2.80
2023-01-15T22:23:39.997Z,2.80
2023-01-15T22:27:02.117Z,2.90
2023-01-15T22:30:23.667Z,2.90
2023-01-15T22:33:45.707Z,2.90
2023-01-15T22:37:07.272Z,2.90
2023-01-15T22:40:30.169Z,2.80
2023-01-15T22:43:51.719Z,2.90
2023-01-15T22:47:13.325Z,2.80
2023-01-15T22:50:34.913Z,2.80
2023-01-15T22:53:56.804Z,2.70
2023-01-15T22:57:19.815Z,2.60
2023-01-15T23:00:41.522Z,2.50
2023-01-15T23:04:03.069Z,2.40
2023-01-15T23:07:24.620Z,2.30
2023-01-15T23:10:46.145Z,2.20
2023-01-15T23:14:10.978Z,2.10
2023-01-15T23:17:32.524Z,2.10
2023-01-15T23:20:54.083Z,2.10
2023-01-15T23:24:15.646Z,2.20
2023-01-15T23:27:37.311Z,2.30
2023-01-15T23:31:00.271Z,2.40
2023-01-15T23:34:21.909Z,2.40
2023-01-15T23:37:43.466Z,2.50
2023-01-15T23:41:08.095Z,2.50
2023-01-15T23:44:29.650Z,2.60
2023-01-15T23:47:52.521Z,2.70
2023-01-15T23:51:14.100Z,2.70
2023-01-15T23:54:35.653Z,2.60
2023-01-15T23:57:57.181Z,2.60
